sensor_id;sensor_type;location;lat;lon;timestamp;P1;durP1;ratioP1;P2;durP2;ratioP2
19207;SDS011;9737;59.466;18.036;2023-03-15T00:01:02;4.72;;;2.90;;
19207;SDS011;9737;59.466;18.036;2023-03-15T00:03:33;4.60;;;3.00;;
19207;SDS011;9737;59.466;18.036;2023-03-15T00:06:04;3.28;;;2.78;;
19207;SDS011;9737;59.466;18.036;2023-03-15T00:08:32;3.38;;;2.90;;
19207;SDS011;9737;59.466;18.036;2023-03-15T00:11:00;3.08;;;2.72;;
19207;SDS011;9737;59.466;18.036;2023-03-15T00:13:29;3.78;;;2.70;;
19207;SDS011;9737;59.466;18.036;2023-03-15T00:15:59;2.92;;;2.63;;
19207;SDS011;9737;59.466;18.036;2023-03-15T00:18:29;3.90;;;2.80;;
19207;SDS011;9737;59.466;18.036;2023-03-15T00:20:58;3.10;;;2.70;;
19207;SDS011;9737;59.466;18.036;2023-03-15T00:23:27;4.97;;;2.75;;
19207;SDS011;9737;59.466;18.036;2023-03-15T00:25:56;3.58;;;2.60;;
19207;SDS011;9737;59.466;18.036;2023-03-15T00:28:24;2.92;;;2.65;;
19207;SDS011;9737;59.466;18.036;2023-03-15T00:31:01;2.72;;;2.38;;
19207;SDS011;9737;59.466;18.036;2023-03-15T00:33:30;5.57;;;2.60;;
19207;SDS011;9737;59.466;18.036;2023-03-15T00:36:01;2.78;;;2.58;;
19207;SDS011;9737;59.466;18.036;2023-03-15T00:38:32;2.88;;;2.58;;
19207;SDS011;9737;59.466;18.036;2023-03-15T00:41:04;3.50;;;2.55;;
19207;SDS011;9737;59.466;18.036;2023-03-15T00:43:33;4.80;;;2.30;;
19207;SDS011;9737;59.466;18.036;2023-03-15T00:46:01;6.32;;;2.58;;
19207;SDS011;9737;59.466;18.036;2023-03-15T00:48:30;3.53;;;2.60;;
19207;SDS011;9737;59.466;18.036;2023-03-15T00:51:01;3.00;;;2.80;;
19207;SDS011;9737;59.466;18.036;2023-03-15T00:53:32;4.95;;;2.55;;
19207;SDS011;9737;59.466;18.036;2023-03-15T00:56:04;3.17;;;2.58;;
19207;SDS011;9737;59.466;18.036;2023-03-15T00:58:32;2.78;;;2.58;;
19207;SDS011;9737;59.466;18.036;2023-03-15T01:01:03;2.67;;;2.40;;
19207;SDS011;9737;59.466;18.036;2023-03-15T01:03:32;2.88;;;2.60;;
19207;SDS011;9737;59.466;18.036;2023-03-15T01:06:06;7.78;;;2.90;;
19207;SDS011;9737;59.466;18.036;2023-03-15T01:08:37;2.60;;;2.40;;
19207;SDS011;9737;59.466;18.036;2023-03-15T01:11:06;3.75;;;2.50;;
19207;SDS011;9737;59.466;18.036;2023-03-15T01:13:35;2.60;;;2.40;;
19207;SDS011;9737;59.466;18.036;2023-03-15T01:16:03;3.00;;;2.65;;
19207;SDS011;9737;59.466;18.036;2023-03-15T01:18:32;3.72;;;2.47;;
19207;SDS011;9737;59.466;18.036;2023-03-15T01:21:00;3.08;;;2.40;;
19207;SDS011;9737;59.466;18.036;2023-03-15T01:23:28;2.58;;;2.38;;
19207;SDS011;9737;59.466;18.036;2023-03-15T01:25:59;2.58;;;2.38;;
19207;SDS011;9737;59.466;18.036;2023-03-15T01:28:27;2.95;;;2.65;;
19207;SDS011;9737;59.466;18.036;2023-03-15T01:30:56;4.70;;;2.63;;
19207;SDS011;9737;59.466;18.036;2023-03-15T01:33:25;2.70;;;2.20;;
19207;SDS011;9737;59.466;18.036;2023-03-15T01:35:57;3.47;;;2.50;;
19207;SDS011;9737;59.466;18.036;2023-03-15T01:38:26;2.60;;;2.40;;
19207;SDS011;9737;59.466;18.036;2023-03-15T01:40:54;2.53;;;2.33;;
19207;SDS011;9737;59.466;18.036;2023-03-15T01:43:24;2.70;;;2.50;;
19207;SDS011;9737;59.466;18.036;2023-03-15T01:46:04;2.50;;;2.30;;
19207;SDS011;9737;59.466;18.036;2023-03-15T01:48:34;4.45;;;2.50;;
19207;SDS011;9737;59.466;18.036;2023-03-15T01:51:10;2.58;;;2.38;;
19207;SDS011;9737;59.466;18.036;2023-03-15T01:53:45;2.35;;;2.20;;
19207;SDS011;9737;59.466;18.036;2023-03-15T01:56:18;4.43;;;2.40;;
19207;SDS011;9737;59.466;18.036;2023-03-15T01:58:48;4.47;;;2.55;;
19207;SDS011;9737;59.466;18.036;2023-03-15T02:01:20;5.00;;;3.03;;
19207;SDS011;9737;59.466;18.036;2023-03-15T02:03:48;2.80;;;2.60;;
19207;SDS011;9737;59.466;18.036;2023-03-15T02:06:20;2.60;;;2.40;;
19207;SDS011;9737;59.466;18.036;2023-03-15T02:08:50;3.40;;;2.25;;
19207;SDS011;9737;59.466;18.036;2023-03-15T02:11:21;2.60;;;2.40;;
19207;SDS011;9737;59.466;18.036;2023-03-15T02:13:53;2.75;;;2.55;;
19207;SDS011;9737;59.466;18.036;2023-03-15T02:16:23;5.15;;;2.50;;
19207;SDS011;9737;59.466;18.036;2023-03-15T02:18:51;2.75;;;2.53;;
19207;SDS011;9737;59.466;18.036;2023-03-15T02:21:24;6.95;;;2.47;;
19207;SDS011;9737;59.466;18.036;2023-03-15T02:24:01;2.58;;;2.38;;
19207;SDS011;9737;59.466;18.036;2023-03-15T02:26:40;3.95;;;2.55;;
19207;SDS011;9737;59.466;18.036;2023-03-15T02:29:12;2.70;;;2.30;;
19207;SDS011;9737;59.466;18.036;2023-03-15T02:34:12;2.40;;;2.20;;
19207;SDS011;9737;59.466;18.036;2023-03-15T02:36:39;4.13;;;2.20;;
19207;SDS011;9737;59.466;18.036;2023-03-15T02:39:14;3.10;;;2.42;;
19207;SDS011;9737;59.466;18.036;2023-03-15T02:41:45;2.58;;;2.38;;
19207;SDS011;9737;59.466;18.036;2023-03-15T02:44:18;3.58;;;2.20;;
19207;SDS011;9737;59.466;18.036;2023-03-15T02:46:50;3.53;;;2.60;;
19207;SDS011;9737;59.466;18.036;2023-03-15T02:49:20;2.70;;;2.50;;
19207;SDS011;9737;59.466;18.036;2023-03-15T02:51:51;5.68;;;2.00;;
19207;SDS011;9737;59.466;18.036;2023-03-15T02:54:19;2.33;;;2.10;;
19207;SDS011;9737;59.466;18.036;2023-03-15T02:56:47;7.50;;;2.30;;
19207;SDS011;9737;59.466;18.036;2023-03-15T02:59:14;2.20;;;2.10;;
19207;SDS011;9737;59.466;18.036;2023-03-15T03:01:44;2.60;;;2.25;;
19207;SDS011;9737;59.466;18.036;2023-03-15T03:04:12;2.35;;;2.20;;
19207;SDS011;9737;59.466;18.036;2023-03-15T03:06:40;3.28;;;2.40;;
19207;SDS011;9737;59.466;18.036;2023-03-15T03:09:09;4.60;;;2.20;;
19207;SDS011;9737;59.466;18.036;2023-03-15T03:11:37;2.47;;;2.28;;
19207;SDS011;9737;59.466;18.036;2023-03-15T03:14:05;3.15;;;2.20;;
19207;SDS011;9737;59.466;18.036;2023-03-15T03:16:34;2.40;;;2.20;;
19207;SDS011;9737;59.466;18.036;2023-03-15T03:19:03;5.82;;;2.40;;
19207;SDS011;9737;59.466;18.036;2023-03-15T03:21:31;4.80;;;2.40;;
19207;SDS011;9737;59.466;18.036;2023-03-15T03:23:59;3.60;;;2.45;;
19207;SDS011;9737;59.466;18.036;2023-03-15T03:26:27;5.15;;;2.25;;
19207;SDS011;9737;59.466;18.036;2023-03-15T03:28:58;3.08;;;2.30;;
19207;SDS011;9737;59.466;18.036;2023-03-15T03:31:26;6.30;;;2.30;;
19207;SDS011;9737;59.466;18.036;2023-03-15T03:33:54;2.40;;;2.20;;
19207;SDS011;9737;59.466;18.036;2023-03-15T03:36:24;3.00;;;2.33;;
19207;SDS011;9737;59.466;18.036;2023-03-15T03:38:52;3.85;;;2.22;;
19207;SDS011;9737;59.466;18.036;2023-03-15T03:41:20;4.97;;;2.42;;
19207;SDS011;9737;59.466;18.036;2023-03-15T03:43:48;2.47;;;2.28;;
19207;SDS011;9737;59.466;18.036;2023-03-15T03:46:16;3.03;;;2.15;;
19207;SDS011;9737;59.466;18.036;2023-03-15T03:48:44;4.63;;;2.40;;
19207;SDS011;9737;59.466;18.036;2023-03-15T03:51:12;2.55;;;2.10;;
19207;SDS011;9737;59.466;18.036;2023-03-15T03:53:41;2.70;;;2.47;;
19207;SDS011;9737;59.466;18.036;2023-03-15T03:56:09;2.28;;;2.10;;
19207;SDS011;9737;59.466;18.036;2023-03-15T03:58:36;3.00;;;2.22;;
19207;SDS011;9737;59.466;18.036;2023-03-15T04:01:04;3.95;;;2.30;;
19207;SDS011;9737;59.466;18.036;2023-03-15T04:03:32;2.50;;;2.30;;
19207;SDS011;9737;59.466;18.036;2023-03-15T04:06:00;2.40;;;2.20;;
19207;SDS011;9737;59.466;18.036;2023-03-15T04:08:31;2.63;;;2.30;;
19207;SDS011;9737;59.466;18.036;2023-03-15T04:11:00;2.30;;;2.10;;
19207;SDS011;9737;59.466;18.036;2023-03-15T04:13:29;2.53;;;2.33;;
19207;SDS011;9737;59.466;18.036;2023-03-15T04:15:57;2.50;;;2.30;;
19207;SDS011;9737;59.466;18.036;2023-03-15T04:18:27;3.60;;;2.47;;
19207;SDS011;9737;59.466;18.036;2023-03-15T04:20:56;2.53;;;2.33;;
19207;SDS011;9737;59.466;18.036;2023-03-15T04:23:24;2.55;;;2.35;;
19207;SDS011;9737;59.466;18.036;2023-03-15T04:25:52;3.67;;;2.63;;
19207;SDS011;9737;59.466;18.036;2023-03-15T04:28:22;3.58;;;2.53;;
19207;SDS011;9737;59.466;18.036;2023-03-15T04:30:50;2.63;;;2.42;;
19207;SDS011;9737;59.466;18.036;2023-03-15T04:33:24;4.78;;;2.50;;
19207;SDS011;9737;59.466;18.036;2023-03-15T04:35:52;5.63;;;2.42;;
19207;SDS011;9737;59.466;18.036;2023-03-15T04:38:20;5.47;;;2.63;;
19207;SDS011;9737;59.466;18.036;2023-03-15T04:40:52;3.22;;;2.40;;
19207;SDS011;9737;59.466;18.036;2023-03-15T04:43:22;4.60;;;2.63;;
19207;SDS011;9737;59.466;18.036;2023-03-15T04:45:50;3.35;;;2.50;;
19207;SDS011;9737;59.466;18.036;2023-03-15T04:48:18;4.03;;;2.45;;
19207;SDS011;9737;59.466;18.036;2023-03-15T04:50:46;4.18;;;2.40;;
19207;SDS011;9737;59.466;18.036;2023-03-15T04:53:13;5.85;;;2.65;;
19207;SDS011;9737;59.466;18.036;2023-03-15T04:55:41;4.15;;;2.42;;
19207;SDS011;9737;59.466;18.036;2023-03-15T04:58:09;3.08;;;2.65;;
19207;SDS011;9737;59.466;18.036;2023-03-15T05:00:39;6.85;;;2.58;;
19207;SDS011;9737;59.466;18.036;2023-03-15T05:03:07;3.55;;;2.58;;
19207;SDS011;9737;59.466;18.036;2023-03-15T05:05:34;4.47;;;2.80;;
19207;SDS011;9737;59.466;18.036;2023-03-15T05:08:02;4.50;;;2.60;;
19207;SDS011;9737;59.466;18.036;2023-03-15T05:10:30;4.95;;;2.80;;
19207;SDS011;9737;59.466;18.036;2023-03-15T05:12:58;5.25;;;3.13;;
19207;SDS011;9737;59.466;18.036;2023-03-15T05:15:26;5.38;;;2.80;;
19207;SDS011;9737;59.466;18.036;2023-03-15T05:17:55;5.18;;;2.65;;
19207;SDS011;9737;59.466;18.036;2023-03-15T05:20:23;4.43;;;2.60;;
19207;SDS011;9737;59.466;18.036;2023-03-15T05:22:51;2.83;;;2.53;;
19207;SDS011;9737;59.466;18.036;2023-03-15T05:25:19;2.80;;;2.50;;
19207;SDS011;9737;59.466;18.036;2023-03-15T05:27:48;3.80;;;2.53;;
19207;SDS011;9737;59.466;18.036;2023-03-15T05:30:15;2.60;;;2.40;;
19207;SDS011;9737;59.466;18.036;2023-03-15T05:32:43;2.88;;;2.58;;
19207;SDS011;9737;59.466;18.036;2023-03-15T05:35:13;4.10;;;2.30;;
19207;SDS011;9737;59.466;18.036;2023-03-15T05:37:41;3.03;;;2.50;;
19207;SDS011;9737;59.466;18.036;2023-03-15T05:40:09;2.45;;;2.25;;
19207;SDS011;9737;59.466;18.036;2023-03-15T05:42:37;4.53;;;2.53;;
19207;SDS011;9737;59.466;18.036;2023-03-15T05:45:06;9.80;;;2.65;;
19207;SDS011;9737;59.466;18.036;2023-03-15T05:47:34;3.08;;;2.65;;
19207;SDS011;9737;59.466;18.036;2023-03-15T05:50:02;4.25;;;2.70;;
19207;SDS011;9737;59.466;18.036;2023-03-15T05:52:32;2.92;;;2.47;;
19207;SDS011;9737;59.466;18.036;2023-03-15T05:55:00;3.17;;;2.33;;
19207;SDS011;9737;59.466;18.036;2023-03-15T05:57:28;2.20;;;2.00;;
19207;SDS011;9737;59.466;18.036;2023-03-15T05:59:56;4.75;;;2.53;;
19207;SDS011;9737;59.466;18.036;2023-03-15T06:02:24;5.38;;;2.50;;
19207;SDS011;9737;59.466;18.036;2023-03-15T06:04:52;2.63;;;2.40;;
19207;SDS011;9737;59.466;18.036;2023-03-15T06:07:20;4.45;;;2.60;;
19207;SDS011;9737;59.466;18.036;2023-03-15T06:09:49;4.00;;;2.55;;
19207;SDS011;9737;59.466;18.036;2023-03-15T06:12:17;4.43;;;2.42;;
19207;SDS011;9737;59.466;18.036;2023-03-15T06:14:45;2.60;;;2.40;;
19207;SDS011;9737;59.466;18.036;2023-03-15T06:17:13;2.50;;;2.30;;
19207;SDS011;9737;59.466;18.036;2023-03-15T06:19:41;5.30;;;2.55;;
19207;SDS011;9737;59.466;18.036;2023-03-15T06:22:09;2.80;;;2.38;;
19207;SDS011;9737;59.466;18.036;2023-03-15T06:24:37;2.70;;;2.50;;
19207;SDS011;9737;59.466;18.036;2023-03-15T06:27:06;6.00;;;2.35;;
19207;SDS011;9737;59.466;18.036;2023-03-15T06:29:34;2.40;;;2.20;;
19207;SDS011;9737;59.466;18.036;2023-03-15T06:32:02;2.35;;;2.15;;
19207;SDS011;9737;59.466;18.036;2023-03-15T06:34:31;5.13;;;2.30;;
19207;SDS011;9737;59.466;18.036;2023-03-15T06:36:58;4.43;;;2.40;;
19207;SDS011;9737;59.466;18.036;2023-03-15T06:39:26;2.80;;;2.47;;
19207;SDS011;9737;59.466;18.036;2023-03-15T06:41:54;2.40;;;2.20;;
19207;SDS011;9737;59.466;18.036;2023-03-15T06:44:25;4.22;;;2.53;;
19207;SDS011;9737;59.466;18.036;2023-03-15T06:46:53;3.65;;;2.28;;
19207;SDS011;9737;59.466;18.036;2023-03-15T06:49:20;2.50;;;2.30;;
19207;SDS011;9737;59.466;18.036;2023-03-15T06:51:48;4.03;;;1.98;;
19207;SDS011;9737;59.466;18.036;2023-03-15T06:54:16;2.35;;;2.17;;
19207;SDS011;9737;59.466;18.036;2023-03-15T06:56:44;3.05;;;2.30;;
19207;SDS011;9737;59.466;18.036;2023-03-15T06:59:12;4.03;;;2.40;;
19207;SDS011;9737;59.466;18.036;2023-03-15T07:01:41;4.07;;;2.42;;
19207;SDS011;9737;59.466;18.036;2023-03-15T07:04:09;3.17;;;2.35;;
19207;SDS011;9737;59.466;18.036;2023-03-15T07:06:37;3.42;;;2.70;;
19207;SDS011;9737;59.466;18.036;2023-03-15T07:09:04;5.60;;;2.50;;
19207;SDS011;9737;59.466;18.036;2023-03-15T07:11:32;3.50;;;2.10;;
19207;SDS011;9737;59.466;18.036;2023-03-15T07:14:00;4.25;;;2.20;;
19207;SDS011;9737;59.466;18.036;2023-03-15T07:16:28;5.55;;;2.10;;
19207;SDS011;9737;59.466;18.036;2023-03-15T07:18:57;4.18;;;2.30;;
19207;SDS011;9737;59.466;18.036;2023-03-15T07:21:26;4.53;;;2.10;;
19207;SDS011;9737;59.466;18.036;2023-03-15T07:23:54;3.67;;;2.10;;
19207;SDS011;9737;59.466;18.036;2023-03-15T07:26:22;2.70;;;2.00;;
19207;SDS011;9737;59.466;18.036;2023-03-15T07:28:49;2.40;;;2.00;;
19207;SDS011;9737;59.466;18.036;2023-03-15T07:31:17;2.95;;;1.90;;
19207;SDS011;9737;59.466;18.036;2023-03-15T07:33:45;2.20;;;1.88;;
19207;SDS011;9737;59.466;18.036;2023-03-15T07:36:14;5.53;;;2.20;;
19207;SDS011;9737;59.466;18.036;2023-03-15T07:38:42;4.43;;;2.05;;
19207;SDS011;9737;59.466;18.036;2023-03-15T07:41:10;3.15;;;1.70;;
19207;SDS011;9737;59.466;18.036;2023-03-15T07:43:38;3.17;;;1.70;;
19207;SDS011;9737;59.466;18.036;2023-03-15T07:46:05;2.95;;;1.75;;
19207;SDS011;9737;59.466;18.036;2023-03-15T07:48:34;6.10;;;2.20;;
19207;SDS011;9737;59.466;18.036;2023-03-15T07:51:02;4.95;;;1.90;;
19207;SDS011;9737;59.466;18.036;2023-03-15T07:53:31;2.08;;;1.80;;
19207;SDS011;9737;59.466;18.036;2023-03-15T07:55:59;5.80;;;1.95;;
19207;SDS011;9737;59.466;18.036;2023-03-15T07:58:27;4.72;;;1.70;;
19207;SDS011;9737;59.466;18.036;2023-03-15T08:00:55;3.45;;;1.88;;
19207;SDS011;9737;59.466;18.036;2023-03-15T08:03:23;3.40;;;1.52;;
19207;SDS011;9737;59.466;18.036;2023-03-15T08:05:52;2.63;;;2.00;;
19207;SDS011;9737;59.466;18.036;2023-03-15T08:08:22;3.13;;;1.70;;
19207;SDS011;9737;59.466;18.036;2023-03-15T08:10:52;3.90;;;2.08;;
19207;SDS011;9737;59.466;18.036;2023-03-15T08:13:21;6.63;;;1.92;;
19207;SDS011;9737;59.466;18.036;2023-03-15T08:15:49;2.80;;;2.03;;
19207;SDS011;9737;59.466;18.036;2023-03-15T08:18:17;4.25;;;1.80;;
19207;SDS011;9737;59.466;18.036;2023-03-15T08:20:45;3.78;;;1.90;;
19207;SDS011;9737;59.466;18.036;2023-03-15T08:23:13;2.67;;;1.67;;
19207;SDS011;9737;59.466;18.036;2023-03-15T08:25:42;1.73;;;1.58;;
19207;SDS011;9737;59.466;18.036;2023-03-15T08:28:11;1.92;;;1.63;;
19207;SDS011;9737;59.466;18.036;2023-03-15T08:30:39;7.65;;;1.83;;
19207;SDS011;9737;59.466;18.036;2023-03-15T08:33:07;4.43;;;1.80;;
19207;SDS011;9737;59.466;18.036;2023-03-15T08:35:35;1.52;;;1.42;;
19207;SDS011;9737;59.466;18.036;2023-03-15T08:38:03;1.73;;;1.50;;
19207;SDS011;9737;59.466;18.036;2023-03-15T08:40:31;2.13;;;1.42;;
19207;SDS011;9737;59.466;18.036;2023-03-15T08:42:59;1.90;;;1.50;;
19207;SDS011;9737;59.466;18.036;2023-03-15T08:45:28;2.00;;;1.52;;
19207;SDS011;9737;59.466;18.036;2023-03-15T08:47:58;2.85;;;1.52;;
19207;SDS011;9737;59.466;18.036;2023-03-15T08:50:27;2.33;;;1.60;;
19207;SDS011;9737;59.466;18.036;2023-03-15T08:52:57;2.95;;;1.50;;
19207;SDS011;9737;59.466;18.036;2023-03-15T08:55:24;3.92;;;1.50;;
19207;SDS011;9737;59.466;18.036;2023-03-15T08:57:52;1.55;;;1.30;;
19207;SDS011;9737;59.466;18.036;2023-03-15T09:00:20;2.08;;;1.40;;
19207;SDS011;9737;59.466;18.036;2023-03-15T09:02:50;4.60;;;1.67;;
19207;SDS011;9737;59.466;18.036;2023-03-15T09:05:18;1.98;;;1.35;;
19207;SDS011;9737;59.466;18.036;2023-03-15T09:07:47;2.05;;;1.30;;
19207;SDS011;9737;59.466;18.036;2023-03-15T09:10:16;3.47;;;1.48;;
19207;SDS011;9737;59.466;18.036;2023-03-15T09:12:45;2.13;;;1.52;;
19207;SDS011;9737;59.466;18.036;2023-03-15T09:15:14;2.58;;;1.40;;
19207;SDS011;9737;59.466;18.036;2023-03-15T09:17:43;3.85;;;1.85;;
19207;SDS011;9737;59.466;18.036;2023-03-15T09:20:12;4.72;;;1.42;;
19207;SDS011;9737;59.466;18.036;2023-03-15T09:22:48;3.17;;;1.30;;
19207;SDS011;9737;59.466;18.036;2023-03-15T09:25:19;2.60;;;1.35;;
19207;SDS011;9737;59.466;18.036;2023-03-15T09:27:47;3.70;;;1.50;;
19207;SDS011;9737;59.466;18.036;2023-03-15T09:30:15;3.90;;;1.50;;
19207;SDS011;9737;59.466;18.036;2023-03-15T09:32:44;4.40;;;1.35;;
19207;SDS011;9737;59.466;18.036;2023-03-15T09:35:14;2.33;;;1.27;;
19207;SDS011;9737;59.466;18.036;2023-03-15T09:37:43;3.30;;;1.40;;
19207;SDS011;9737;59.466;18.036;2023-03-15T09:40:13;2.85;;;1.42;;
19207;SDS011;9737;59.466;18.036;2023-03-15T09:42:52;5.32;;;1.50;;
19207;SDS011;9737;59.466;18.036;2023-03-15T09:45:26;3.60;;;1.30;;
19207;SDS011;9737;59.466;18.036;2023-03-15T09:48:03;2.22;;;1.40;;
19207;SDS011;9737;59.466;18.036;2023-03-15T09:50:37;2.17;;;1.05;;
19207;SDS011;9737;59.466;18.036;2023-03-15T09:53:11;5.40;;;1.20;;
19207;SDS011;9737;59.466;18.036;2023-03-15T09:55:44;2.67;;;1.40;;
19207;SDS011;9737;59.466;18.036;2023-03-15T09:58:14;2.08;;;1.10;;
19207;SDS011;9737;59.466;18.036;2023-03-15T10:00:46;4.90;;;1.20;;
19207;SDS011;9737;59.466;18.036;2023-03-15T10:03:18;2.13;;;1.08;;
19207;SDS011;9737;59.466;18.036;2023-03-15T10:05:53;2.45;;;1.15;;
19207;SDS011;9737;59.466;18.036;2023-03-15T10:08:23;3.47;;;1.02;;
19207;SDS011;9737;59.466;18.036;2023-03-15T10:10:52;1.92;;;1.20;;
19207;SDS011;9737;59.466;18.036;2023-03-15T10:13:37;2.63;;;1.20;;
19207;SDS011;9737;59.466;18.036;2023-03-15T10:16:23;2.72;;;1.15;;
19207;SDS011;9737;59.466;18.036;2023-03-15T10:19:01;2.33;;;1.20;;
19207;SDS011;9737;59.466;18.036;2023-03-15T10:21:37;2.58;;;1.00;;
19207;SDS011;9737;59.466;18.036;2023-03-15T10:24:14;3.75;;;1.10;;
19207;SDS011;9737;59.466;18.036;2023-03-15T10:26:46;3.47;;;1.10;;
19207;SDS011;9737;59.466;18.036;2023-03-15T10:29:18;2.22;;;1.10;;
19207;SDS011;9737;59.466;18.036;2023-03-15T10:31:47;1.20;;;1.02;;
19207;SDS011;9737;59.466;18.036;2023-03-15T10:34:17;2.30;;;0.98;;
19207;SDS011;9737;59.466;18.036;2023-03-15T10:36:49;3.72;;;1.40;;
19207;SDS011;9737;59.466;18.036;2023-03-15T10:39:20;1.63;;;1.00;;
19207;SDS011;9737;59.466;18.036;2023-03-15T10:41:49;1.70;;;1.08;;
19207;SDS011;9737;59.466;18.036;2023-03-15T10:44:18;1.95;;;1.00;;
19207;SDS011;9737;59.466;18.036;2023-03-15T10:47:01;4.80;;;1.42;;
19207;SDS011;9737;59.466;18.036;2023-03-15T10:49:48;2.47;;;0.88;;
19207;SDS011;9737;59.466;18.036;2023-03-15T10:52:28;1.75;;;1.02;;
19207;SDS011;9737;59.466;18.036;2023-03-15T10:55:02;1.35;;;0.95;;
19207;SDS011;9737;59.466;18.036;2023-03-15T10:57:36;2.53;;;1.30;;
19207;SDS011;9737;59.466;18.036;2023-03-15T11:00:12;1.95;;;1.10;;
19207;SDS011;9737;59.466;18.036;2023-03-15T11:02:59;1.40;;;1.05;;
19207;SDS011;9737;59.466;18.036;2023-03-15T11:05:29;1.98;;;1.10;;
19207;SDS011;9737;59.466;18.036;2023-03-15T11:08:00;1.77;;;1.00;;
19207;SDS011;9737;59.466;18.036;2023-03-15T11:10:28;1.08;;;0.93;;
19207;SDS011;9737;59.466;18.036;2023-03-15T11:13:16;2.72;;;1.05;;
19207;SDS011;9737;59.466;18.036;2023-03-15T11:15:52;4.75;;;1.10;;
19207;SDS011;9737;59.466;18.036;2023-03-15T11:18:27;4.03;;;1.10;;
19207;SDS011;9737;59.466;18.036;2023-03-15T11:21:00;3.00;;;1.38;;
19207;SDS011;9737;59.466;18.036;2023-03-15T11:23:33;1.95;;;0.98;;
19207;SDS011;9737;59.466;18.036;2023-03-15T11:26:03;2.05;;;1.20;;
19207;SDS011;9737;59.466;18.036;2023-03-15T11:28:32;3.67;;;1.10;;
19207;SDS011;9737;59.466;18.036;2023-03-15T11:31:03;2.75;;;1.40;;
19207;SDS011;9737;59.466;18.036;2023-03-15T11:33:37;1.77;;;1.08;;
19207;SDS011;9737;59.466;18.036;2023-03-15T11:36:12;1.95;;;0.90;;
19207;SDS011;9737;59.466;18.036;2023-03-15T11:38:44;2.97;;;1.20;;
19207;SDS011;9737;59.466;18.036;2023-03-15T11:41:19;1.10;;;0.85;;
19207;SDS011;9737;59.466;18.036;2023-03-15T11:43:55;3.75;;;1.10;;
19207;SDS011;9737;59.466;18.036;2023-03-15T11:46:30;1.80;;;0.85;;
19207;SDS011;9737;59.466;18.036;2023-03-15T11:49:01;2.40;;;1.10;;
19207;SDS011;9737;59.466;18.036;2023-03-15T11:51:35;2.53;;;1.20;;
19207;SDS011;9737;59.466;18.036;2023-03-15T11:54:06;2.25;;;1.00;;
19207;SDS011;9737;59.466;18.036;2023-03-15T11:56:45;2.67;;;0.90;;
19207;SDS011;9737;59.466;18.036;2023-03-15T11:59:15;2.22;;;1.10;;
19207;SDS011;9737;59.466;18.036;2023-03-15T12:01:46;2.38;;;1.25;;
19207;SDS011;9737;59.466;18.036;2023-03-15T12:04:27;2.75;;;1.02;;
19207;SDS011;9737;59.466;18.036;2023-03-15T12:07:05;2.00;;;0.90;;
19207;SDS011;9737;59.466;18.036;2023-03-15T12:09:55;1.70;;;1.00;;
19207;SDS011;9737;59.466;18.036;2023-03-15T12:12:34;2.33;;;1.13;;
19207;SDS011;9737;59.466;18.036;2023-03-15T12:15:14;3.00;;;1.02;;
19207;SDS011;9737;59.466;18.036;2023-03-15T12:18:12;1.48;;;0.80;;
19207;SDS011;9737;59.466;18.036;2023-03-15T12:20:44;2.42;;;1.00;;
19207;SDS011;9737;59.466;18.036;2023-03-15T12:23:31;1.75;;;0.98;;
19207;SDS011;9737;59.466;18.036;2023-03-15T12:26:06;3.22;;;1.23;;
19207;SDS011;9737;59.466;18.036;2023-03-15T12:28:41;2.65;;;1.00;;
19207;SDS011;9737;59.466;18.036;2023-03-15T12:31:17;2.42;;;1.10;;
19207;SDS011;9737;59.466;18.036;2023-03-15T12:33:50;3.10;;;1.20;;
19207;SDS011;9737;59.466;18.036;2023-03-15T12:36:26;4.18;;;1.45;;
19207;SDS011;9737;59.466;18.036;2023-03-15T12:39:02;3.05;;;1.30;;
19207;SDS011;9737;59.466;18.036;2023-03-15T12:41:50;1.85;;;1.27;;
19207;SDS011;9737;59.466;18.036;2023-03-15T12:44:25;6.70;;;1.50;;
19207;SDS011;9737;59.466;18.036;2023-03-15T12:47:04;5.80;;;1.30;;
19207;SDS011;9737;59.466;18.036;2023-03-15T12:49:34;3.45;;;1.20;;
19207;SDS011;9737;59.466;18.036;2023-03-15T12:52:04;1.90;;;1.30;;
19207;SDS011;9737;59.466;18.036;2023-03-15T12:54:41;5.70;;;1.40;;
19207;SDS011;9737;59.466;18.036;2023-03-15T12:57:19;2.47;;;1.38;;
19207;SDS011;9737;59.466;18.036;2023-03-15T12:59:49;2.25;;;1.30;;
19207;SDS011;9737;59.466;18.036;2023-03-15T13:02:28;1.73;;;1.20;;
19207;SDS011;9737;59.466;18.036;2023-03-15T13:05:16;2.22;;;1.40;;
19207;SDS011;9737;59.466;18.036;2023-03-15T13:07:55;3.33;;;1.10;;
19207;SDS011;9737;59.466;18.036;2023-03-15T13:13:31;2.80;;;1.35;;
19207;SDS011;9737;59.466;18.036;2023-03-15T13:16:20;2.00;;;1.27;;
19207;SDS011;9737;59.466;18.036;2023-03-15T13:19:00;4.45;;;1.20;;
19207;SDS011;9737;59.466;18.036;2023-03-15T13:21:40;3.75;;;1.17;;
19207;SDS011;9737;59.466;18.036;2023-03-15T13:24:25;3.42;;;1.30;;
19207;SDS011;9737;59.466;18.036;2023-03-15T13:27:00;4.40;;;1.30;;
19207;SDS011;9737;59.466;18.036;2023-03-15T13:29:35;3.42;;;1.40;;
19207;SDS011;9737;59.466;18.036;2023-03-15T13:32:07;3.00;;;1.27;;
19207;SDS011;9737;59.466;18.036;2023-03-15T13:34:39;1.90;;;1.10;;
19207;SDS011;9737;59.466;18.036;2023-03-15T13:37:11;1.85;;;1.13;;
19207;SDS011;9737;59.466;18.036;2023-03-15T13:39:51;1.70;;;1.13;;
19207;SDS011;9737;59.466;18.036;2023-03-15T13:42:21;3.45;;;1.30;;
19207;SDS011;9737;59.466;18.036;2023-03-15T13:45:08;3.00;;;1.13;;
19207;SDS011;9737;59.466;18.036;2023-03-15T13:47:38;5.20;;;1.25;;
19207;SDS011;9737;59.466;18.036;2023-03-15T13:50:07;3.00;;;1.10;;
19207;SDS011;9737;59.466;18.036;2023-03-15T13:52:39;1.13;;;0.88;;
19207;SDS011;9737;59.466;18.036;2023-03-15T13:55:08;5.50;;;1.23;;
19207;SDS011;9737;59.466;18.036;2023-03-15T13:57:39;3.15;;;1.00;;
19207;SDS011;9737;59.466;18.036;2023-03-15T14:00:09;2.75;;;1.13;;
19207;SDS011;9737;59.466;18.036;2023-03-15T14:02:43;1.83;;;0.82;;
19207;SDS011;9737;59.466;18.036;2023-03-15T14:05:15;2.25;;;1.10;;
19207;SDS011;9737;59.466;18.036;2023-03-15T14:07:54;1.98;;;1.00;;
19207;SDS011;9737;59.466;18.036;2023-03-15T14:10:26;2.22;;;1.10;;
19207;SDS011;9737;59.466;18.036;2023-03-15T14:12:57;3.03;;;0.93;;
19207;SDS011;9737;59.466;18.036;2023-03-15T14:15:43;2.38;;;1.27;;
19207;SDS011;9737;59.466;18.036;2023-03-15T14:18:14;2.03;;;1.05;;
19207;SDS011;9737;59.466;18.036;2023-03-15T14:20:46;3.63;;;1.10;;
19207;SDS011;9737;59.466;18.036;2023-03-15T14:23:21;4.22;;;0.90;;
19207;SDS011;9737;59.466;18.036;2023-03-15T14:25:51;3.55;;;1.35;;
19207;SDS011;9737;59.466;18.036;2023-03-15T14:28:20;1.77;;;0.90;;
19207;SDS011;9737;59.466;18.036;2023-03-15T14:30:51;2.80;;;1.30;;
19207;SDS011;9737;59.466;18.036;2023-03-15T14:33:24;1.35;;;1.08;;
19207;SDS011;9737;59.466;18.036;2023-03-15T14:35:57;2.67;;;1.20;;
19207;SDS011;9737;59.466;18.036;2023-03-15T14:38:30;4.72;;;1.30;;
19207;SDS011;9737;59.466;18.036;2023-03-15T14:41:10;7.20;;;1.20;;
19207;SDS011;9737;59.466;18.036;2023-03-15T14:43:45;2.92;;;1.30;;
19207;SDS011;9737;59.466;18.036;2023-03-15T14:46:14;1.63;;;1.00;;
19207;SDS011;9737;59.466;18.036;2023-03-15T14:48:42;5.07;;;0.93;;
19207;SDS011;9737;59.466;18.036;2023-03-15T14:51:11;1.88;;;0.90;;
19207;SDS011;9737;59.466;18.036;2023-03-15T14:53:42;7.80;;;1.00;;
19207;SDS011;9737;59.466;18.036;2023-03-15T14:56:10;1.58;;;0.90;;
19207;SDS011;9737;59.466;18.036;2023-03-15T14:58:39;3.30;;;1.08;;
19207;SDS011;9737;59.466;18.036;2023-03-15T15:01:09;1.67;;;0.90;;
19207;SDS011;9737;59.466;18.036;2023-03-15T15:03:41;2.42;;;1.10;;
19207;SDS011;9737;59.466;18.036;2023-03-15T15:06:14;4.47;;;1.00;;
19207;SDS011;9737;59.466;18.036;2023-03-15T15:08:43;5.18;;;1.10;;
19207;SDS011;9737;59.466;18.036;2023-03-15T15:11:13;2.40;;;1.10;;
19207;SDS011;9737;59.466;18.036;2023-03-15T15:13:41;2.70;;;1.08;;
19207;SDS011;9737;59.466;18.036;2023-03-15T15:16:09;2.80;;;1.27;;